sensor_id;sensor_type;location;lat;lon;timestamp;P1;durP1;ratioP1;P2;durP2;ratioP2
27491;SDS011;14927;51.210;6.838;2023-05-09T00:01:58;9.38;;;7.70;;
27491;SDS011;14927;51.210;6.838;2023-05-09T00:04:42;9.50;;;8.00;;
27491;SDS011;14927;51.210;6.838;2023-05-09T00:07:27;8.25;;;7.35;;
27491;SDS011;14927;51.210;6.838;2023-05-09T00:10:13;9.98;;;8.15;;
27491;SDS011;14927;51.210;6.838;2023-05-09T00:12:57;11.02;;;8.10;;
27491;SDS011;14927;51.210;6.838;2023-05-09T00:15:43;8.38;;;7.45;;
27491;SDS011;14927;51.210;6.838;2023-05-09T00:18:27;10.30;;;8.73;;
27491;SDS011;14927;51.210;6.838;2023-05-09T00:21:13;11.40;;;8.85;;
27491;SDS011;14927;51.210;6.838;2023-05-09T00:23:58;13.25;;;8.48;;
27491;SDS011;14927;51.210;6.838;2023-05-09T00:26:43;12.18;;;8.18;;
27491;SDS011;14927;51.210;6.838;2023-05-09T00:29:28;9.43;;;8.45;;
27491;SDS011;14927;51.210;6.838;2023-05-09T00:32:13;9.80;;;8.80;;
27491;SDS011;14927;51.210;6.838;2023-05-09T00:34:58;11.13;;;9.32;;
27491;SDS011;14927;51.210;6.838;2023-05-09T00:37:42;10.88;;;9.38;;
27491;SDS011;14927;51.210;6.838;2023-05-09T00:40:27;11.18;;;8.45;;
27491;SDS011;14927;51.210;6.838;2023-05-09T00:43:11;13.52;;;9.38;;
27491;SDS011;14927;51.210;6.838;2023-05-09T00:45:56;12.98;;;9.70;;
27491;SDS011;14927;51.210;6.838;2023-05-09T00:48:41;11.35;;;9.48;;
27491;SDS011;14927;51.210;6.838;2023-05-09T00:51:26;11.80;;;9.23;;
27491;SDS011;14927;51.210;6.838;2023-05-09T00:54:11;10.63;;;9.40;;
27491;SDS011;14927;51.210;6.838;2023-05-09T00:56:56;11.45;;;9.50;;
27491;SDS011;14927;51.210;6.838;2023-05-09T00:59:41;12.82;;;10.07;;
27491;SDS011;14927;51.210;6.838;2023-05-09T01:02:25;11.65;;;10.40;;
27491;SDS011;14927;51.210;6.838;2023-05-09T01:05:10;12.35;;;9.40;;
27491;SDS011;14927;51.210;6.838;2023-05-09T01:11:28;12.18;;;10.38;;
27491;SDS011;14927;51.210;6.838;2023-05-09T01:14:58;13.02;;;10.18;;
27491;SDS011;14927;51.210;6.838;2023-05-09T01:18:05;12.48;;;11.20;;
27491;SDS011;14927;51.210;6.838;2023-05-09T01:21:10;14.93;;;11.15;;
27491;SDS011;14927;51.210;6.838;2023-05-09T01:27:03;19.95;;;11.30;;
27491;SDS011;14927;51.210;6.838;2023-05-09T01:30:06;14.30;;;12.30;;
27491;SDS011;14927;51.210;6.838;2023-05-09T01:32:52;14.63;;;12.15;;
27491;SDS011;14927;51.210;6.838;2023-05-09T01:38:31;18.27;;;13.30;;
27491;SDS011;14927;51.210;6.838;2023-05-09T01:41:18;15.95;;;12.45;;
27491;SDS011;14927;51.210;6.838;2023-05-09T01:44:07;14.73;;;12.63;;
27491;SDS011;14927;51.210;6.838;2023-05-09T01:46:54;17.38;;;12.80;;
27491;SDS011;14927;51.210;6.838;2023-05-09T01:49:39;17.83;;;13.77;;
27491;SDS011;14927;51.210;6.838;2023-05-09T01:52:25;16.00;;;13.30;;
27491;SDS011;14927;51.210;6.838;2023-05-09T01:55:11;15.60;;;12.48;;
27491;SDS011;14927;51.210;6.838;2023-05-09T01:57:57;17.92;;;14.07;;
27491;SDS011;14927;51.210;6.838;2023-05-09T02:00:43;17.02;;;13.85;;
27491;SDS011;14927;51.210;6.838;2023-05-09T02:03:30;14.52;;;12.50;;
27491;SDS011;14927;51.210;6.838;2023-05-09T02:06:17;14.75;;;12.02;;
27491;SDS011;14927;51.210;6.838;2023-05-09T02:09:05;13.63;;;12.23;;
27491;SDS011;14927;51.210;6.838;2023-05-09T02:11:51;21.60;;;13.73;;
27491;SDS011;14927;51.210;6.838;2023-05-09T02:14:36;14.35;;;12.85;;
27491;SDS011;14927;51.210;6.838;2023-05-09T02:17:21;15.65;;;13.75;;
27491;SDS011;14927;51.210;6.838;2023-05-09T02:20:06;19.45;;;13.10;;
27491;SDS011;14927;51.210;6.838;2023-05-09T02:22:52;14.85;;;12.95;;
27491;SDS011;14927;51.210;6.838;2023-05-09T02:25:37;18.73;;;13.60;;
27491;SDS011;14927;51.210;6.838;2023-05-09T02:28:23;16.65;;;13.75;;
27491;SDS011;14927;51.210;6.838;2023-05-09T02:31:08;14.48;;;12.23;;
27491;SDS011;14927;51.210;6.838;2023-05-09T02:33:55;15.65;;;13.50;;
27491;SDS011;14927;51.210;6.838;2023-05-09T02:36:40;16.38;;;13.68;;
27491;SDS011;14927;51.210;6.838;2023-05-09T02:39:24;15.73;;;13.20;;
27491;SDS011;14927;51.210;6.838;2023-05-09T02:42:10;15.77;;;13.77;;
27491;SDS011;14927;51.210;6.838;2023-05-09T02:44:56;20.17;;;15.38;;
27491;SDS011;14927;51.210;6.838;2023-05-09T02:47:41;18.55;;;14.20;;
27491;SDS011;14927;51.210;6.838;2023-05-09T02:50:26;20.15;;;14.40;;
27491;SDS011;14927;51.210;6.838;2023-05-09T02:53:11;22.95;;;16.48;;
27491;SDS011;14927;51.210;6.838;2023-05-09T02:55:55;23.88;;;17.35;;
27491;SDS011;14927;51.210;6.838;2023-05-09T02:58:40;23.15;;;16.63;;
27491;SDS011;14927;51.210;6.838;2023-05-09T03:01:24;23.48;;;17.00;;
27491;SDS011;14927;51.210;6.838;2023-05-09T03:04:09;27.73;;;17.50;;
27491;SDS011;14927;51.210;6.838;2023-05-09T03:06:54;19.00;;;15.38;;
27491;SDS011;14927;51.210;6.838;2023-05-09T03:09:38;22.17;;;15.82;;
27491;SDS011;14927;51.210;6.838;2023-05-09T03:12:23;24.50;;;16.10;;
27491;SDS011;14927;51.210;6.838;2023-05-09T03:15:08;22.50;;;16.30;;
27491;SDS011;14927;51.210;6.838;2023-05-09T03:17:53;23.27;;;17.13;;
27491;SDS011;14927;51.210;6.838;2023-05-09T03:20:38;21.83;;;17.40;;
27491;SDS011;14927;51.210;6.838;2023-05-09T03:23:22;20.98;;;16.00;;
27491;SDS011;14927;51.210;6.838;2023-05-09T03:26:07;21.52;;;15.95;;
27491;SDS011;14927;51.210;6.838;2023-05-09T03:28:51;31.13;;;20.10;;
27491;SDS011;14927;51.210;6.838;2023-05-09T03:31:36;33.88;;;22.65;;
27491;SDS011;14927;51.210;6.838;2023-05-09T03:34:21;38.80;;;23.85;;
27491;SDS011;14927;51.210;6.838;2023-05-09T03:37:06;43.92;;;26.27;;
27491;SDS011;14927;51.210;6.838;2023-05-09T03:39:50;43.97;;;26.90;;
27491;SDS011;14927;51.210;6.838;2023-05-09T03:42:35;39.28;;;24.58;;
27491;SDS011;14927;51.210;6.838;2023-05-09T03:45:20;36.53;;;25.17;;
27491;SDS011;14927;51.210;6.838;2023-05-09T03:48:04;46.05;;;25.65;;
27491;SDS011;14927;51.210;6.838;2023-05-09T03:50:52;38.70;;;24.63;;
27491;SDS011;14927;51.210;6.838;2023-05-09T03:53:36;40.35;;;24.38;;
27491;SDS011;14927;51.210;6.838;2023-05-09T03:56:21;40.33;;;24.17;;
27491;SDS011;14927;51.210;6.838;2023-05-09T03:59:06;40.88;;;25.23;;
27491;SDS011;14927;51.210;6.838;2023-05-09T04:01:50;64.78;;;34.55;;
27491;SDS011;14927;51.210;6.838;2023-05-09T04:04:35;75.30;;;39.05;;
27491;SDS011;14927;51.210;6.838;2023-05-09T04:07:19;54.80;;;30.50;;
27491;SDS011;14927;51.210;6.838;2023-05-09T04:10:05;55.53;;;29.23;;
27491;SDS011;14927;51.210;6.838;2023-05-09T04:12:50;34.70;;;22.38;;
27491;SDS011;14927;51.210;6.838;2023-05-09T04:15:35;40.53;;;21.88;;
27491;SDS011;14927;51.210;6.838;2023-05-09T04:18:20;28.77;;;17.80;;
27491;SDS011;14927;51.210;6.838;2023-05-09T04:21:05;26.38;;;17.42;;
27491;SDS011;14927;51.210;6.838;2023-05-09T04:23:49;21.77;;;16.35;;
27491;SDS011;14927;51.210;6.838;2023-05-09T04:26:34;24.67;;;15.52;;
27491;SDS011;14927;51.210;6.838;2023-05-09T04:29:21;20.45;;;15.85;;
27491;SDS011;14927;51.210;6.838;2023-05-09T04:32:05;19.83;;;15.75;;
27491;SDS011;14927;51.210;6.838;2023-05-09T04:34:50;19.50;;;16.00;;
27491;SDS011;14927;51.210;6.838;2023-05-09T04:37:34;20.85;;;15.45;;
27491;SDS011;14927;51.210;6.838;2023-05-09T04:40:19;21.15;;;15.35;;
27491;SDS011;14927;51.210;6.838;2023-05-09T04:43:04;17.27;;;15.23;;
27491;SDS011;14927;51.210;6.838;2023-05-09T04:45:49;23.33;;;15.82;;
27491;SDS011;14927;51.210;6.838;2023-05-09T04:48:34;19.83;;;15.85;;
27491;SDS011;14927;51.210;6.838;2023-05-09T04:51:18;18.08;;;15.10;;
27491;SDS011;14927;51.210;6.838;2023-05-09T04:54:03;21.40;;;16.20;;
27491;SDS011;14927;51.210;6.838;2023-05-09T04:56:48;16.85;;;14.73;;
27491;SDS011;14927;51.210;6.838;2023-05-09T04:59:32;19.65;;;15.55;;
27491;SDS011;14927;51.210;6.838;2023-05-09T05:02:17;18.73;;;15.68;;
27491;SDS011;14927;51.210;6.838;2023-05-09T05:05:03;19.80;;;15.88;;
27491;SDS011;14927;51.210;6.838;2023-05-09T05:07:48;20.80;;;16.13;;
27491;SDS011;14927;51.210;6.838;2023-05-09T05:10:33;19.90;;;16.00;;
27491;SDS011;14927;51.210;6.838;2023-05-09T05:13:17;18.27;;;16.08;;
27491;SDS011;14927;51.210;6.838;2023-05-09T05:16:03;19.38;;;15.35;;
27491;SDS011;14927;51.210;6.838;2023-05-09T05:18:48;18.17;;;14.93;;
27491;SDS011;14927;51.210;6.838;2023-05-09T05:21:32;18.85;;;15.35;;
27491;SDS011;14927;51.210;6.838;2023-05-09T05:24:17;19.42;;;16.00;;
27491;SDS011;14927;51.210;6.838;2023-05-09T05:27:02;20.83;;;16.27;;
27491;SDS011;14927;51.210;6.838;2023-05-09T05:29:46;18.83;;;15.70;;
27491;SDS011;14927;51.210;6.838;2023-05-09T05:32:31;21.73;;;16.40;;
27491;SDS011;14927;51.210;6.838;2023-05-09T05:35:16;21.67;;;16.60;;
27491;SDS011;14927;51.210;6.838;2023-05-09T05:38:02;19.95;;;16.17;;
27491;SDS011;14927;51.210;6.838;2023-05-09T05:40:47;23.17;;;15.43;;
27491;SDS011;14927;51.210;6.838;2023-05-09T05:43:33;19.90;;;16.33;;
27491;SDS011;14927;51.210;6.838;2023-05-09T05:46:17;21.02;;;16.10;;
27491;SDS011;14927;51.210;6.838;2023-05-09T05:49:02;18.08;;;15.18;;
27491;SDS011;14927;51.210;6.838;2023-05-09T05:51:50;17.92;;;15.18;;
27491;SDS011;14927;51.210;6.838;2023-05-09T05:54:34;19.67;;;15.93;;
27491;SDS011;14927;51.210;6.838;2023-05-09T05:57:19;17.50;;;15.15;;
27491;SDS011;14927;51.210;6.838;2023-05-09T06:00:07;22.40;;;16.17;;
27491;SDS011;14927;51.210;6.838;2023-05-09T06:02:53;19.93;;;16.13;;
27491;SDS011;14927;51.210;6.838;2023-05-09T06:05:42;17.63;;;15.75;;
27491;SDS011;14927;51.210;6.838;2023-05-09T06:08:27;18.65;;;15.63;;
27491;SDS011;14927;51.210;6.838;2023-05-09T06:11:12;18.83;;;16.00;;
27491;SDS011;14927;51.210;6.838;2023-05-09T06:13:56;17.88;;;15.70;;
27491;SDS011;14927;51.210;6.838;2023-05-09T06:16:41;19.30;;;15.60;;
27491;SDS011;14927;51.210;6.838;2023-05-09T06:19:26;19.73;;;15.68;;
27491;SDS011;14927;51.210;6.838;2023-05-09T06:22:11;19.42;;;15.35;;
27491;SDS011;14927;51.210;6.838;2023-05-09T06:24:55;19.48;;;14.80;;
27491;SDS011;14927;51.210;6.838;2023-05-09T06:27:40;18.55;;;15.45;;
27491;SDS011;14927;51.210;6.838;2023-05-09T06:30:34;18.80;;;14.90;;
27491;SDS011;14927;51.210;6.838;2023-05-09T06:33:40;17.85;;;14.23;;
27491;SDS011;14927;51.210;6.838;2023-05-09T06:36:24;19.92;;;14.77;;
27491;SDS011;14927;51.210;6.838;2023-05-09T06:39:09;18.52;;;15.40;;
27491;SDS011;14927;51.210;6.838;2023-05-09T06:41:54;18.42;;;14.25;;
27491;SDS011;14927;51.210;6.838;2023-05-09T06:44:38;20.35;;;14.75;;
27491;SDS011;14927;51.210;6.838;2023-05-09T06:47:23;17.48;;;14.10;;
27491;SDS011;14927;51.210;6.838;2023-05-09T06:50:08;20.05;;;14.15;;
27491;SDS011;14927;51.210;6.838;2023-05-09T06:52:52;17.30;;;13.38;;
27491;SDS011;14927;51.210;6.838;2023-05-09T06:55:37;18.27;;;13.68;;
27491;SDS011;14927;51.210;6.838;2023-05-09T06:58:22;15.65;;;13.45;;
27491;SDS011;14927;51.210;6.838;2023-05-09T07:01:55;15.57;;;13.82;;
27491;SDS011;14927;51.210;6.838;2023-05-09T07:04:40;16.73;;;14.52;;
27491;SDS011;14927;51.210;6.838;2023-05-09T07:07:25;15.18;;;12.90;;
27491;SDS011;14927;51.210;6.838;2023-05-09T07:10:09;16.80;;;12.98;;
27491;SDS011;14927;51.210;6.838;2023-05-09T07:12:54;16.33;;;13.07;;
27491;SDS011;14927;51.210;6.838;2023-05-09T07:15:39;15.55;;;12.18;;
27491;SDS011;14927;51.210;6.838;2023-05-09T07:18:23;14.73;;;13.05;;
27491;SDS011;14927;51.210;6.838;2023-05-09T07:21:08;14.95;;;12.43;;
27491;SDS011;14927;51.210;6.838;2023-05-09T07:23:53;15.02;;;11.63;;
27491;SDS011;14927;51.210;6.838;2023-05-09T07:26:37;15.57;;;11.57;;
27491;SDS011;14927;51.210;6.838;2023-05-09T07:29:22;13.82;;;11.00;;
27491;SDS011;14927;51.210;6.838;2023-05-09T07:32:07;13.95;;;10.93;;
27491;SDS011;14927;51.210;6.838;2023-05-09T07:34:51;13.32;;;11.90;;
27491;SDS011;14927;51.210;6.838;2023-05-09T07:37:36;11.75;;;10.55;;
27491;SDS011;14927;51.210;6.838;2023-05-09T07:40:20;14.30;;;11.30;;
27491;SDS011;14927;51.210;6.838;2023-05-09T07:43:05;12.30;;;10.93;;
27491;SDS011;14927;51.210;6.838;2023-05-09T07:45:50;13.27;;;10.52;;
27491;SDS011;14927;51.210;6.838;2023-05-09T07:48:35;12.77;;;10.02;;
27491;SDS011;14927;51.210;6.838;2023-05-09T07:51:19;11.45;;;10.07;;
27491;SDS011;14927;51.210;6.838;2023-05-09T07:54:04;11.27;;;9.55;;
27491;SDS011;14927;51.210;6.838;2023-05-09T07:56:49;10.82;;;8.95;;
27491;SDS011;14927;51.210;6.838;2023-05-09T07:59:36;11.05;;;9.70;;
27491;SDS011;14927;51.210;6.838;2023-05-09T08:02:30;10.57;;;8.90;;
27491;SDS011;14927;51.210;6.838;2023-05-09T08:05:14;9.35;;;7.68;;
27491;SDS011;14927;51.210;6.838;2023-05-09T08:07:59;10.88;;;8.05;;
27491;SDS011;14927;51.210;6.838;2023-05-09T08:10:43;10.85;;;8.48;;
27491;SDS011;14927;51.210;6.838;2023-05-09T08:13:28;12.95;;;8.07;;
27491;SDS011;14927;51.210;6.838;2023-05-09T08:16:13;9.52;;;7.38;;
27491;SDS011;14927;51.210;6.838;2023-05-09T08:18:59;8.00;;;7.20;;
27491;SDS011;14927;51.210;6.838;2023-05-09T08:21:44;9.98;;;7.13;;
27491;SDS011;14927;51.210;6.838;2023-05-09T08:24:29;9.15;;;6.68;;
27491;SDS011;14927;51.210;6.838;2023-05-09T08:27:15;7.78;;;6.40;;
27491;SDS011;14927;51.210;6.838;2023-05-09T08:29:59;7.43;;;4.90;;
27491;SDS011;14927;51.210;6.838;2023-05-09T08:32:44;5.28;;;4.78;;
27491;SDS011;14927;51.210;6.838;2023-05-09T08:35:29;5.22;;;4.43;;
27491;SDS011;14927;51.210;6.838;2023-05-09T08:38:13;4.25;;;3.85;;
27491;SDS011;14927;51.210;6.838;2023-05-09T08:40:58;5.25;;;4.10;;
27491;SDS011;14927;51.210;6.838;2023-05-09T08:43:44;4.55;;;3.30;;
27491;SDS011;14927;51.210;6.838;2023-05-09T08:46:38;6.93;;;3.08;;
27491;SDS011;14927;51.210;6.838;2023-05-09T08:49:26;4.68;;;3.38;;
27491;SDS011;14927;51.210;6.838;2023-05-09T08:52:11;3.13;;;2.83;;
27491;SDS011;14927;51.210;6.838;2023-05-09T08:54:57;4.07;;;2.67;;
27491;SDS011;14927;51.210;6.838;2023-05-09T08:57:47;5.55;;;2.72;;
27491;SDS011;14927;51.210;6.838;2023-05-09T09:00:32;2.90;;;2.40;;
27491;SDS011;14927;51.210;6.838;2023-05-09T09:03:17;5.07;;;2.70;;
27491;SDS011;14927;51.210;6.838;2023-05-09T09:06:02;4.82;;;2.45;;
27491;SDS011;14927;51.210;6.838;2023-05-09T09:08:51;2.50;;;2.10;;
27491;SDS011;14927;51.210;6.838;2023-05-09T09:11:39;4.25;;;2.50;;
27491;SDS011;14927;51.210;6.838;2023-05-09T09:14:25;5.72;;;3.10;;
27491;SDS011;14927;51.210;6.838;2023-05-09T09:17:14;4.53;;;2.85;;
27491;SDS011;14927;51.210;6.838;2023-05-09T09:20:07;3.83;;;2.88;;
27491;SDS011;14927;51.210;6.838;2023-05-09T09:22:59;5.70;;;3.08;;
27491;SDS011;14927;51.210;6.838;2023-05-09T09:25:48;4.60;;;3.05;;
27491;SDS011;14927;51.210;6.838;2023-05-09T09:28:40;2.38;;;2.17;;
27491;SDS011;14927;51.210;6.838;2023-05-09T09:31:26;4.28;;;3.03;;
27491;SDS011;14927;51.210;6.838;2023-05-09T09:34:18;5.65;;;3.00;;
27491;SDS011;14927;51.210;6.838;2023-05-09T09:37:05;4.05;;;2.72;;
27491;SDS011;14927;51.210;6.838;2023-05-09T09:39:53;3.60;;;2.80;;
27491;SDS011;14927;51.210;6.838;2023-05-09T09:42:43;8.50;;;2.80;;
27491;SDS011;14927;51.210;6.838;2023-05-09T09:45:29;4.25;;;2.80;;
27491;SDS011;14927;51.210;6.838;2023-05-09T09:48:14;3.65;;;2.45;;
27491;SDS011;14927;51.210;6.838;2023-05-09T09:51:08;4.13;;;2.63;;
27491;SDS011;14927;51.210;6.838;2023-05-09T09:53:54;3.20;;;2.38;;
27491;SDS011;14927;51.210;6.838;2023-05-09T09:59:28;3.50;;;2.60;;
27491;SDS011;14927;51.210;6.838;2023-05-09T10:02:13;4.30;;;2.15;;
27491;SDS011;14927;51.210;6.838;2023-05-09T10:05:07;3.75;;;2.13;;
27491;SDS011;14927;51.210;6.838;2023-05-09T10:07:56;7.78;;;2.20;;
27491;SDS011;14927;51.210;6.838;2023-05-09T10:10:44;3.88;;;2.20;;
27491;SDS011;14927;51.210;6.838;2023-05-09T10:13:29;5.55;;;2.45;;
27491;SDS011;14927;51.210;6.838;2023-05-09T10:16:14;3.35;;;2.30;;
27491;SDS011;14927;51.210;6.838;2023-05-09T10:18:58;3.28;;;2.25;;
27491;SDS011;14927;51.210;6.838;2023-05-09T10:21:43;3.50;;;2.13;;
27491;SDS011;14927;51.210;6.838;2023-05-09T10:27:45;2.80;;;1.90;;
27491;SDS011;14927;51.210;6.838;2023-05-09T10:30:37;2.72;;;2.05;;
27491;SDS011;14927;51.210;6.838;2023-05-09T10:33:59;6.57;;;1.95;;
27491;SDS011;14927;51.210;6.838;2023-05-09T10:36:48;3.65;;;1.90;;
27491;SDS011;14927;51.210;6.838;2023-05-09T10:39:33;4.82;;;1.95;;
27491;SDS011;14927;51.210;6.838;2023-05-09T10:42:20;7.45;;;3.35;;
27491;SDS011;14927;51.210;6.838;2023-05-09T10:45:08;3.03;;;1.92;;
27491;SDS011;14927;51.210;6.838;2023-05-09T10:51:26;4.15;;;1.70;;
27491;SDS011;14927;51.210;6.838;2023-05-09T10:54:12;1.52;;;1.30;;
27491;SDS011;14927;51.210;6.838;2023-05-09T10:57:00;3.22;;;1.65;;
27491;SDS011;14927;51.210;6.838;2023-05-09T10:59:44;1.75;;;1.52;;
27491;SDS011;14927;51.210;6.838;2023-05-09T11:02:29;4.45;;;1.70;;
27491;SDS011;14927;51.210;6.838;2023-05-09T11:05:18;3.58;;;1.70;;
27491;SDS011;14927;51.210;6.838;2023-05-09T11:11:21;4.47;;;1.45;;
27491;SDS011;14927;51.210;6.838;2023-05-09T11:14:17;5.13;;;1.77;;
27491;SDS011;14927;51.210;6.838;2023-05-09T11:17:15;3.05;;;2.15;;
27491;SDS011;14927;51.210;6.838;2023-05-09T11:20:11;2.15;;;1.33;;
27491;SDS011;14927;51.210;6.838;2023-05-09T11:22:57;5.40;;;2.00;;
27491;SDS011;14927;51.210;6.838;2023-05-09T11:25:44;3.92;;;2.20;;
27491;SDS011;14927;51.210;6.838;2023-05-09T11:31:20;3.88;;;1.80;;
27491;SDS011;14927;51.210;6.838;2023-05-09T11:34:04;4.20;;;1.73;;
27491;SDS011;14927;51.210;6.838;2023-05-09T11:36:49;1.60;;;1.27;;
27491;SDS011;14927;51.210;6.838;2023-05-09T11:39:34;2.72;;;1.73;;
27491;SDS011;14927;51.210;6.838;2023-05-09T11:42:42;1.23;;;1.13;;
27491;SDS011;14927;51.210;6.838;2023-05-09T11:45:30;3.75;;;1.58;;
27491;SDS011;14927;51.210;6.838;2023-05-09T11:48:16;2.80;;;1.35;;
27491;SDS011;14927;51.210;6.838;2023-05-09T11:51:05;3.40;;;1.00;;
27491;SDS011;14927;51.210;6.838;2023-05-09T11:53:50;1.30;;;1.10;;
27491;SDS011;14927;51.210;6.838;2023-05-09T11:56:37;1.60;;;1.20;;
27491;SDS011;14927;51.210;6.838;2023-05-09T11:59:23;4.00;;;1.50;;
27491;SDS011;14927;51.210;6.838;2023-05-09T12:02:08;6.10;;;1.85;;
27491;SDS011;14927;51.210;6.838;2023-05-09T12:04:53;2.85;;;1.92;;
27491;SDS011;14927;51.210;6.838;2023-05-09T12:07:37;1.77;;;1.20;;
27491;SDS011;14927;51.210;6.838;2023-05-09T12:10:22;2.88;;;1.17;;
27491;SDS011;14927;51.210;6.838;2023-05-09T12:13:07;3.83;;;1.42;;
27491;SDS011;14927;51.210;6.838;2023-05-09T12:15:58;2.10;;;1.42;;
27491;SDS011;14927;51.210;6.838;2023-05-09T12:21:34;3.80;;;1.25;;
27491;SDS011;14927;51.210;6.838;2023-05-09T12:24:19;1.90;;;1.20;;
27491;SDS011;14927;51.210;6.838;2023-05-09T12:27:04;1.67;;;1.15;;
27491;SDS011;14927;51.210;6.838;2023-05-09T12:29:50;5.35;;;1.33;;
27491;SDS011;14927;51.210;6.838;2023-05-09T12:32:36;1.80;;;1.25;;
27491;SDS011;14927;51.210;6.838;2023-05-09T12:35:23;8.85;;;1.42;;
27491;SDS011;14927;51.210;6.838;2023-05-09T12:38:08;2.75;;;1.48;;
27491;SDS011;14927;51.210;6.838;2023-05-09T12:41:04;1.48;;;1.38;;
27491;SDS011;14927;51.210;6.838;2023-05-09T12:43:53;6.60;;;1.15;;
27491;SDS011;14927;51.210;6.838;2023-05-09T12:46:38;5.90;;;1.00;;
27491;SDS011;14927;51.210;6.838;2023-05-09T12:49:23;3.85;;;1.23;;
27491;SDS011;14927;51.210;6.838;2023-05-09T12:52:16;4.20;;;1.60;;
27491;SDS011;14927;51.210;6.838;2023-05-09T12:55:10;2.75;;;1.20;;
27491;SDS011;14927;51.210;6.838;2023-05-09T12:58:04;5.10;;;1.35;;
27491;SDS011;14927;51.210;6.838;2023-05-09T13:00:49;1.50;;;1.27;;
27491;SDS011;14927;51.210;6.838;2023-05-09T13:04:35;1.73;;;1.30;;
27491;SDS011;14927;51.210;6.838;2023-05-09T13:07:09;5.40;;;1.50;;
27491;SDS011;14927;51.210;6.838;2023-05-09T13:10:25;2.45;;;1.30;;
27491;SDS011;14927;51.210;6.838;2023-05-09T13:13:15;2.95;;;1.40;;
27491;SDS011;14927;51.210;6.838;2023-05-09T13:16:12;1.95;;;1.15;;
27491;SDS011;14927;51.210;6.838;2023-05-09T13:19:08;1.25;;;1.15;;
27491;SDS011;14927;51.210;6.838;2023-05-09T13:21:56;2.80;;;1.85;;
27491;SDS011;14927;51.210;6.838;2023-05-09T13:24:47;5.35;;;3.20;;
27491;SDS011;14927;51.210;6.838;2023-05-09T13:27:55;4.20;;;3.45;;
27491;SDS011;14927;51.210;6.838;2023-05-09T13:30:42;7.90;;;3.35;;
27491;SDS011;14927;51.210;6.838;2023-05-09T13:33:29;5.35;;;3.35;;
27491;SDS011;14927;51.210;6.838;2023-05-09T13:36:14;6.82;;;3.45;;
27491;SDS011;14927;51.210;6.838;2023-05-09T13:38:59;5.72;;;4.13;;
27491;SDS011;14927;51.210;6.838;2023-05-09T13:41:47;5.50;;;3.53;;
27491;SDS011;14927;51.210;6.838;2023-05-09T13:44:33;6.45;;;3.65;;
27491;SDS011;14927;51.210;6.838;2023-05-09T13:47:18;8.80;;;4.32;;
27491;SDS011;14927;51.210;6.838;2023-05-09T13:50:04;9.60;;;4.40;;
27491;SDS011;14927;51.210;6.838;2023-05-09T13:52:49;4.45;;;3.70;;
27491;SDS011;14927;51.210;6.838;2023-05-09T13:55:34;4.75;;;4.00;;
27491;SDS011;14927;51.210;6.838;2023-05-09T13:58:25;4.95;;;4.45;;
27491;SDS011;14927;51.210;6.838;2023-05-09T14:01:22;5.15;;;3.90;;
27491;SDS011;14927;51.210;6.838;2023-05-09T14:04:09;6.45;;;4.47;;
27491;SDS011;14927;51.210;6.838;2023-05-09T14:06:57;5.97;;;4.28;;
27491;SDS011;14927;51.210;6.838;2023-05-09T14:09:42;4.90;;;4.10;;
27491;SDS011;14927;51.210;6.838;2023-05-09T14:12:27;5.32;;;4.10;;
27491;SDS011;14927;51.210;6.838;2023-05-09T14:15:11;6.85;;;3.97;;
27491;SDS011;14927;51.210;6.838;2023-05-09T14:17:57;7.45;;;5.07;;
27491;SDS011;14927;51.210;6.838;2023-05-09T14:20:41;6.07;;;5.47;;
27491;SDS011;14927;51.210;6.838;2023-05-09T14:23:44;7.45;;;4.90;;
27491;SDS011;14927;51.210;6.838;2023-05-09T14:26:28;6.32;;;4.75;;
27491;SDS011;14927;51.210;6.838;2023-05-09T14:29:13;7.50;;;4.93;;
27491;SDS011;14927;51.210;6.838;2023-05-09T14:31:59;6.30;;;4.55;;
27491;SDS011;14927;51.210;6.838;2023-05-09T14:34:44;5.53;;;4.85;;
27491;SDS011;14927;51.210;6.838;2023-05-09T14:37:29;7.07;;;5.82;;
27491;SDS011;14927;51.210;6.838;2023-05-09T14:40:14;6.57;;;5.88;;
27491;SDS011;14927;51.210;6.838;2023-05-09T14:42:58;6.32;;;5.53;;
27491;SDS011;14927;51.210;6.838;2023-05-09T14:45:47;8.20;;;5.38;;
27491;SDS011;14927;51.210;6.838;2023-05-09T14:48:32;6.28;;;4.72;;
27491;SDS011;14927;51.210;6.838;2023-05-09T14:51:16;6.43;;;5.32;;
27491;SDS011;14927;51.210;6.838;2023-05-09T14:54:02;7.28;;;5.00;;
27491;SDS011;14927;51.210;6.838;2023-05-09T14:56:46;8.00;;;5.43;;
27491;SDS011;14927;51.210;6.838;2023-05-09T14:59:31;8.00;;;5.07;;
27491;SDS011;14927;51.210;6.838;2023-05-09T15:02:16;5.07;;;4.43;;
27491;SDS011;14927;51.210;6.838;2023-05-09T15:05:01;6.00;;;4.60;;
27491;SDS011;14927;51.210;6.838;2023-05-09T15:07:46;6.78;;;3.97;;
27491;SDS011;14927;51.210;6.838;2023-05-09T15:10:31;4.90;;;4.22;;
27491;SDS011;14927;51.210;6.838;2023-05-09T15:13:16;5.80;;;4.38;;
27491;SDS011;14927;51.210;6.838;2023-05-09T15:16:00;5.68;;;4.45;;
27491;SDS011;14927;51.210;6.838;2023-05-09T15:18:45;5.30;;;4.28;;
27491;SDS011;14927;51.210;6.838;2023-05-09T15:21:30;5.90;;;4.70;;
27491;SDS011;14927;51.210;6.838;2023-05-09T15:24:15;7.80;;;4.47;;
27491;SDS011;14927;51.210;6.838;2023-05-09T15:27:00;8.02;;;4.60;;
27491;SDS011;14927;51.210;6.838;2023-05-09T15:29:45;4.85;;;4.00;;
27491;SDS011;14927;51.210;6.838;2023-05-09T15:32:29;7.78;;;4.63;;
27491;SDS011;14927;51.210;6.838;2023-05-09T15:35:14;5.43;;;3.78;;
27491;SDS011;14927;51.210;6.838;2023-05-09T15:38:00;4.68;;;4.00;;
27491;SDS011;14927;51.210;6.838;2023-05-09T15:40:45;4.55;;;3.60;;
27491;SDS011;14927;51.210;6.838;2023-05-09T15:43:29;5.05;;;4.18;;
27491;SDS011;14927;51.210;6.838;2023-05-09T15:46:14;4.20;;;3.80;;
27491;SDS011;14927;51.210;6.838;2023-05-09T15:48:58;4.18;;;3.63;;
27491;SDS011;14927;51.210;6.838;2023-05-09T15:51:43;6.32;;;3.33;;
27491;SDS011;14927;51.210;6.838;2023-05-09T15:54:28;5.20;;;3.80;;
27491;SDS011;14927;51.210;6.838;2023-05-09T15:57:14;5.80;;;4.00;;
27491;SDS011;14927;51.210;6.838;2023-05-09T16:00:00;6.35;;;4.20;;
27491;SDS011;14927;51.210;6.838;2023-05-09T16:02:44;4.88;;;3.92;;
27491;SDS011;14927;51.210;6.838;2023-05-09T16:05:29;7.53;;;4.53;;
27491;SDS011;14927;51.210;6.838;2023-05-09T16:08:14;4.00;;;3.60;;
27491;SDS011;14927;51.210;6.838;2023-05-09T16:10:58;4.75;;;3.70;;
27491;SDS011;14927;51.210;6.838;2023-05-09T16:13:44;7.82;;;3.40;;
27491;SDS011;14927;51.210;6.838;2023-05-09T16:16:29;4.63;;;3.88;;
27491;SDS011;14927;51.210;6.838;2023-05-09T16:19:13;4.82;;;3.47;;
27491;SDS011;14927;51.210;6.838;2023-05-09T16:21:58;3.95;;;3.55;;
27491;SDS011;14927;51.210;6.838;2023-05-09T16:24:42;3.95;;;3.65;;
27491;SDS011;14927;51.210;6.838;2023-05-09T16:27:27;4.35;;;3.78;;
27491;SDS011;14927;51.210;6.838;2023-05-09T16:30:12;3.40;;;3.10;;
27491;SDS011;14927;51.210;6.838;2023-05-09T16:32:57;3.50;;;3.15;;
27491;SDS011;14927;51.210;6.838;2023-05-09T16:35:41;3.58;;;3.28;;
27491;SDS011;14927;51.210;6.838;2023-05-09T16:38:27;5.78;;;3.55;;
27491;SDS011;14927;51.210;6.838;2023-05-09T16:41:11;4.55;;;3.75;;
27491;SDS011;14927;51.210;6.838;2023-05-09T16:43:56;2.90;;;2.70;;
27491;SDS011;14927;51.210;6.838;2023-05-09T16:46:41;3.28;;;2.55;;
27491;SDS011;14927;51.210;6.838;2023-05-09T16:49:26;4.15;;;2.40;;
27491;SDS011;14927;51.210;6.838;2023-05-09T16:52:10;3.50;;;2.60;;
27491;SDS011;14927;51.210;6.838;2023-05-09T16:54:56;3.40;;;2.65;;
27491;SDS011;14927;51.210;6.838;2023-05-09T16:57:41;3.50;;;2.75;;
27491;SDS011;14927;51.210;6.838;2023-05-09T17:00:26;2.97;;;2.53;;